Time;durP1;ratioP1;P1;durP2;ratioP2;P2;SDS_P1;SDS_P2;PMS_P1;PMS_P2;Temp;Humidity;BMP_temperature;BMP_pressure;BME280_temperature;BME280_humidity;BME280_pressure;Samples;Min_cycle;Max_cycle;Signal;HPM_P1;HPM_P2
2022/10/13 00:00:46;;;;;;;13.53;9.07;;;;;;;;;;5015434;28;20178;-80
2022/10/13 00:03:13;;;;;;;14.07;9.53;;;;;;;;;;5014999;28;20234;-80
2022/10/13 00:05:43;;;;;;;11.40;8.93;;;;;;;;;;5015097;28;20185;-80
2022/10/13 00:08:10;;;;;;;13.23;8.63;;;;;;;;;;4998829;28;20187;-80
2022/10/13 00:10:37;;;;;;;13.23;8.90;;;;;;;;;;5014853;28;20174;-80
2022/10/13 00:13:03;;;;;;;10.90;8.40;;;;;;;;;;5016172;28;20204;-80
2022/10/13 00:15:30;;;;;;;14.67;8.23;;;;;;;;;;5014849;28;20187;-80
2022/10/13 00:17:55;;;;;;;11.13;8.63;;;;;;;;;;5015229;28;20680;-80
2022/10/13 00:20:21;;;;;;;9.80;7.93;;;;;;;;;;4998797;28;20212;-80
2022/10/13 00:22:47;;;;;;;14.43;8.40;;;;;;;;;;4998365;28;20186;-80
2022/10/13 00:25:13;;;;;;;9.70;7.63;;;;;;;;;;5014611;28;20218;-80
2022/10/13 00:27:39;;;;;;;11.10;8.40;;;;;;;;;;4998629;28;20221;-80
2022/10/13 00:30:06;;;;;;;11.43;7.93;;;;;;;;;;4998571;28;20232;-80
2022/10/13 00:32:32;;;;;;;12.33;7.77;;;;;;;;;;4998274;28;20210;-80
2022/10/13 00:34:58;;;;;;;11.07;7.90;;;;;;;;;;4998873;28;20210;-80
2022/10/13 00:37:24;;;;;;;11.27;7.53;;;;;;;;;;4998463;28;20245;-80
2022/10/13 00:39:50;;;;;;;10.37;7.80;;;;;;;;;;4998303;28;20289;-80
2022/10/13 00:42:16;;;;;;;12.60;8.33;;;;;;;;;;4998471;28;20712;-80
2022/10/13 00:45:01;;;;;;;11.13;8.03;;;;;;;;;;4998227;28;20186;-80
2022/10/13 00:47:35;;;;;;;10.80;7.80;;;;;;;;;;5014643;28;20215;-79
2022/10/13 00:50:02;;;;;;;10.63;8.13;;;;;;;;;;4998176;28;20197;-80
2022/10/13 00:52:29;;;;;;;12.97;8.60;;;;;;;;;;5015233;28;20205;-80
2022/10/13 00:54:55;;;;;;;13.80;8.90;;;;;;;;;;4998321;28;20214;-80
2022/10/13 00:57:22;;;;;;;15.60;9.57;;;;;;;;;;5014039;28;20209;-80
2022/10/13 00:59:48;;;;;;;12.60;9.00;;;;;;;;;;5014198;28;20265;-80
2022/10/13 01:02:14;;;;;;;12.77;9.83;;;;;;;;;;5013928;28;20601;-80
2022/10/13 01:04:42;;;;;;;11.10;8.60;;;;;;;;;;5014369;28;20179;-80
2022/10/13 01:07:08;;;;;;;12.83;9.33;;;;;;;;;;5013753;28;20205;-80
2022/10/13 01:09:41;;;;;;;11.77;8.70;;;;;;;;;;5014285;28;20189;-80
2022/10/13 01:12:10;;;;;;;15.43;9.90;;;;;;;;;;5013944;28;20206;-80
2022/10/13 01:14:42;;;;;;;17.03;9.20;;;;;;;;;;5014007;28;20638;-80
2022/10/13 01:17:22;;;;;;;14.50;9.47;;;;;;;;;;5013940;28;20213;-80
2022/10/13 01:19:54;;;;;;;13.17;8.87;;;;;;;;;;5013862;28;20172;-80
2022/10/13 01:22:38;;;;;;;15.30;9.30;;;;;;;;;;5013672;28;20190;-80
2022/10/13 01:25:20;;;;;;;12.57;8.80;;;;;;;;;;5006907;28;20186;-80
2022/10/13 01:28:05;;;;;;;12.90;8.50;;;;;;;;;;4994235;28;20229;-80
2022/10/13 01:30:43;;;;;;;16.00;9.80;;;;;;;;;;4995151;28;20171;-80
2022/10/13 01:33:27;;;;;;;14.40;9.23;;;;;;;;;;4994012;28;20203;-80
2022/10/13 01:36:05;;;;;;;14.30;9.20;;;;;;;;;;4993544;28;20171;-80
2022/10/13 01:38:46;;;;;;;12.63;8.57;;;;;;;;;;4993661;28;20245;-80
2022/10/13 01:41:15;;;;;;;12.10;8.40;;;;;;;;;;4977576;28;20582;-80
2022/10/13 01:43:45;;;;;;;12.53;8.77;;;;;;;;;;4993506;28;20175;-80
2022/10/13 01:46:11;;;;;;;11.50;8.30;;;;;;;;;;4993886;28;20198;-80
2022/10/13 01:48:38;;;;;;;13.30;9.60;;;;;;;;;;4993577;28;20179;-80
2022/10/13 01:51:06;;;;;;;13.13;9.50;;;;;;;;;;4994079;28;20622;-80
2022/10/13 01:53:32;;;;;;;23.63;10.20;;;;;;;;;;4993654;28;20298;-80
2022/10/13 01:55:59;;;;;;;13.23;9.87;;;;;;;;;;4993427;28;20192;-80
2022/10/13 01:58:27;;;;;;;15.03;10.13;;;;;;;;;;4977391;28;20193;-80
2022/10/13 02:01:10;;;;;;;15.60;10.40;;;;;;;;;;4993718;28;20231;-79
2022/10/13 02:03:46;;;;;;;11.77;9.73;;;;;;;;;;4993796;28;20172;-80
2022/10/13 02:06:32;;;;;;;12.67;9.70;;;;;;;;;;4993215;28;20314;-80
2022/10/13 02:09:02;;;;;;;12.93;10.00;;;;;;;;;;4993499;28;20203;-80
2022/10/13 02:11:28;;;;;;;14.30;9.87;;;;;;;;;;4992933;28;20178;-80
2022/10/13 02:14:25;;;;;;;13.77;9.67;;;;;;;;;;4993288;28;20228;-80
2022/10/13 02:16:53;;;;;;;14.13;10.23;;;;;;;;;;4985213;28;20210;-79
2022/10/13 02:19:19;;;;;;;15.17;11.13;;;;;;;;;;4993239;28;20181;-80
2022/10/13 02:21:46;;;;;;;14.30;10.37;;;;;;;;;;4976961;28;20182;-80
2022/10/13 02:24:12;;;;;;;16.47;10.73;;;;;;;;;;4992954;28;20183;-80
2022/10/13 02:26:38;;;;;;;15.90;11.10;;;;;;;;;;4993970;28;20746;-80
2022/10/13 02:29:23;;;;;;;18.83;10.60;;;;;;;;;;4993366;28;20294;-80
2022/10/13 02:31:49;;;;;;;27.87;11.20;;;;;;;;;;4993018;28;20196;-80
2022/10/13 02:34:15;;;;;;;25.83;12.07;;;;;;;;;;4976872;28;20340;-80
2022/10/13 02:36:41;;;;;;;19.67;11.23;;;;;;;;;;4976644;28;20287;-80
2022/10/13 02:39:08;;;;;;;22.03;11.50;;;;;;;;;;4977083;28;20335;-80
2022/10/13 02:41:34;;;;;;;16.50;10.60;;;;;;;;;;4992630;28;20668;-80
2022/10/13 02:44:00;;;;;;;14.27;9.83;;;;;;;;;;4992690;28;20185;-80
2022/10/13 02:46:26;;;;;;;13.80;9.83;;;;;;;;;;4993161;28;20235;-80
2022/10/13 02:48:52;;;;;;;11.67;8.40;;;;;;;;;;4985401;28;20198;-80
2022/10/13 02:51:18;;;;;;;13.93;9.27;;;;;;;;;;5012134;28;20544;-79
2022/10/13 02:53:44;;;;;;;14.60;9.57;;;;;;;;;;4996071;28;20190;-80
2022/10/13 02:56:10;;;;;;;14.20;10.07;;;;;;;;;;5011984;28;20283;-80
2022/10/13 02:58:36;;;;;;;15.67;10.10;;;;;;;;;;5012140;28;20178;-80
2022/10/13 03:01:06;;;;;;;23.27;11.50;;;;;;;;;;5012009;28;20716;-80
2022/10/13 03:03:32;;;;;;;28.87;11.40;;;;;;;;;;5013714;28;20197;-80
2022/10/13 03:05:58;;;;;;;18.73;9.57;;;;;;;;;;4999885;28;20198;-80
2022/10/13 03:08:24;;;;;;;23.17;10.30;;;;;;;;;;5016545;28;20180;-80
2022/10/13 03:10:50;;;;;;;18.67;9.90;;;;;;;;;;4999818;28;20209;-79
2022/10/13 03:13:16;;;;;;;16.70;9.80;;;;;;;;;;4999674;28;20257;-80
2022/10/13 03:15:42;;;;;;;16.60;10.07;;;;;;;;;;4999881;28;20200;-79
2022/10/13 03:18:08;;;;;;;15.87;10.43;;;;;;;;;;4999952;28;20187;-80
2022/10/13 03:20:34;;;;;;;17.67;10.57;;;;;;;;;;4999751;28;20678;-80
2022/10/13 03:23:00;;;;;;;15.73;10.57;;;;;;;;;;4999479;28;20187;-80
2022/10/13 03:25:26;;;;;;;23.00;12.03;;;;;;;;;;4999550;28;20185;-80
2022/10/13 03:27:52;;;;;;;23.43;10.87;;;;;;;;;;5054775;23;20238;-79
2022/10/13 03:30:18;;;;;;;20.17;11.30;;;;;;;;;;5018992;28;20171;-79
2022/10/13 03:32:44;;;;;;;18.43;11.07;;;;;;;;;;5018658;28;20275;-79
2022/10/13 03:35:10;;;;;;;30.23;11.17;;;;;;;;;;5018969;28;20236;-79
2022/10/13 03:37:36;;;;;;;15.90;10.43;;;;;;;;;;5015611;28;20658;-79
2022/10/13 03:40:02;;;;;;;17.17;10.13;;;;;;;;;;5015474;28;20203;-79
2022/10/13 03:42:28;;;;;;;23.83;11.30;;;;;;;;;;5015232;28;20186;-79
2022/10/13 03:44:54;;;;;;;27.73;12.43;;;;;;;;;;5015194;28;20175;-79
2022/10/13 03:47:20;;;;;;;20.47;11.80;;;;;;;;;;5014972;28;20249;-79
2022/10/13 03:49:46;;;;;;;20.40;11.03;;;;;;;;;;5015107;28;20182;-79
2022/10/13 03:52:12;;;;;;;27.87;11.73;;;;;;;;;;5014908;28;20234;-79
2022/10/13 03:54:38;;;;;;;21.30;11.80;;;;;;;;;;5015305;28;20230;-79
2022/10/13 03:57:04;;;;;;;38.13;12.47;;;;;;;;;;5014845;28;20667;-78
2022/10/13 03:59:30;;;;;;;31.37;12.13;;;;;;;;;;5014875;28;20180;-79
2022/10/13 04:01:56;;;;;;;43.60;12.90;;;;;;;;;;5014703;28;20278;-78
2022/10/13 04:04:22;;;;;;;37.23;12.40;;;;;;;;;;4998827;28;20211;-79
2022/10/13 04:06:48;;;;;;;33.40;11.33;;;;;;;;;;5014645;28;20203;-79
2022/10/13 04:09:14;;;;;;;29.80;12.03;;;;;;;;;;5014584;28;20183;-79
2022/10/13 04:11:40;;;;;;;17.80;11.33;;;;;;;;;;4998181;28;20206;-79
2022/10/13 04:14:06;;;;;;;20.20;11.43;;;;;;;;;;4998005;28;20576;-79
2022/10/13 04:16:32;;;;;;;36.10;11.83;;;;;;;;;;4998367;28;20290;-79
2022/10/13 04:19:02;;;;;;;38.90;11.87;;;;;;;;;;4998127;28;20230;-78
2022/10/13 04:21:29;;;;;;;34.13;11.50;;;;;;;;;;5014188;28;20175;-78
2022/10/13 04:23:59;;;;;;;22.90;11.57;;;;;;;;;;4998306;28;20206;-80
2022/10/13 04:26:26;;;;;;;18.20;10.83;;;;;;;;;;5014384;28;20211;-79
2022/10/13 04:28:53;;;;;;;26.17;11.50;;;;;;;;;;5014488;28;20177;-79
2022/10/13 04:31:20;;;;;;;21.43;10.37;;;;;;;;;;5015251;28;20176;-79
2022/10/13 04:33:47;;;;;;;16.30;11.50;;;;;;;;;;5014170;28;20631;-79
2022/10/13 04:36:13;;;;;;;15.90;11.00;;;;;;;;;;5014668;28;20185;-80
2022/10/13 04:38:39;;;;;;;17.97;10.73;;;;;;;;;;5013979;28;20244;-80
2022/10/13 04:41:06;;;;;;;25.40;12.50;;;;;;;;;;4997795;28;20634;-79
2022/10/13 04:43:32;;;;;;;19.03;11.57;;;;;;;;;;5014145;28;20185;-79
2022/10/13 04:46:01;;;;;;;22.00;10.43;;;;;;;;;;5013755;28;20179;-79
2022/10/13 04:48:28;;;;;;;20.17;10.93;;;;;;;;;;5013962;28;20276;-79
2022/10/13 04:51:01;;;;;;;18.40;10.87;;;;;;;;;;4997722;28;20175;-81
2022/10/13 04:53:28;;;;;;;14.93;10.70;;;;;;;;;;5013978;28;20207;-85
2022/10/13 04:55:55;;;;;;;15.13;10.93;;;;;;;;;;4998010;28;20274;-80
2022/10/13 04:58:21;;;;;;;14.63;10.47;;;;;;;;;;4997694;28;20657;-80
2022/10/13 05:00:47;;;;;;;13.77;10.77;;;;;;;;;;4997923;28;20194;-80
2022/10/13 05:03:13;;;;;;;14.80;10.53;;;;;;;;;;5013728;28;20213;-79
2022/10/13 05:05:41;;;;;;;13.93;10.17;;;;;;;;;;5013802;28;20548;-79
2022/10/13 05:08:07;;;;;;;17.20;11.33;;;;;;;;;;5013934;28;20197;-79
2022/10/13 05:10:32;;;;;;;15.90;10.90;;;;;;;;;;4998046;28;20179;-79
2022/10/13 05:12:58;;;;;;;16.30;11.17;;;;;;;;;;4997317;28;20264;-80
2022/10/13 05:15:24;;;;;;;13.93;10.83;;;;;;;;;;5014564;28;20263;-80
2022/10/13 05:17:50;;;;;;;13.90;10.60;;;;;;;;;;4997720;28;20689;-79
2022/10/13 05:20:17;;;;;;;12.57;9.97;;;;;;;;;;4998344;28;20235;-79
2022/10/13 05:22:43;;;;;;;14.63;10.97;;;;;;;;;;4997734;28;20192;-79
2022/10/13 05:25:09;;;;;;;14.70;10.73;;;;;;;;;;4997637;28;20183;-79
2022/10/13 05:27:35;;;;;;;14.73;10.80;;;;;;;;;;4996747;28;20234;-79
2022/10/13 05:30:01;;;;;;;17.00;10.83;;;;;;;;;;5013913;28;20176;-79
2022/10/13 05:32:27;;;;;;;13.27;10.13;;;;;;;;;;4997278;28;20224;-79
2022/10/13 05:34:53;;;;;;;14.03;10.00;;;;;;;;;;5013869;28;20184;-79
2022/10/13 05:37:21;;;;;;;13.70;9.97;;;;;;;;;;4997506;28;20203;-79
2022/10/13 05:39:47;;;;;;;14.13;10.47;;;;;;;;;;4997309;28;20183;-79
2022/10/13 05:42:13;;;;;;;13.33;9.73;;;;;;;;;;5013335;28;20234;-79
2022/10/13 05:44:39;;;;;;;13.47;10.13;;;;;;;;;;4997190;28;20184;-79
2022/10/13 05:47:05;;;;;;;13.27;9.97;;;;;;;;;;4997222;28;20213;-79
2022/10/13 05:49:31;;;;;;;12.27;9.37;;;;;;;;;;4997172;28;20182;-79
2022/10/13 05:52:00;;;;;;;12.40;9.33;;;;;;;;;;5013009;28;20228;-79
2022/10/13 05:54:29;;;;;;;12.43;8.87;;;;;;;;;;5013159;28;20187;-80
2022/10/13 05:57:16;;;;;;;12.97;9.43;;;;;;;;;;5013045;28;20191;-80
2022/10/13 05:59:48;;;;;;;13.13;9.47;;;;;;;;;;5013000;28;20175;-80
2022/10/13 06:02:15;;;;;;;13.40;9.60;;;;;;;;;;5012925;28;20188;-81
2022/10/13 06:04:44;;;;;;;13.27;9.20;;;;;;;;;;5013086;28;20629;-80
2022/10/13 06:07:11;;;;;;;13.67;9.77;;;;;;;;;;5013498;28;20207;-79
2022/10/13 06:09:37;;;;;;;13.10;9.40;;;;;;;;;;4997358;28;20191;-78
2022/10/13 06:12:04;;;;;;;13.20;9.30;;;;;;;;;;5012633;28;20211;-78
2022/10/13 06:14:31;;;;;;;13.07;9.87;;;;;;;;;;5012941;28;20291;-81
2022/10/13 06:16:57;;;;;;;13.43;10.47;;;;;;;;;;4996032;28;20302;-81
2022/10/13 06:19:23;;;;;;;15.83;10.30;;;;;;;;;;4996031;28;20189;-81
2022/10/13 06:21:49;;;;;;;13.57;9.93;;;;;;;;;;4995994;28;20185;-81
2022/10/13 06:24:15;;;;;;;12.67;9.97;;;;;;;;;;4996132;28;20185;-79
2022/10/13 06:26:41;;;;;;;14.27;10.03;;;;;;;;;;5012658;28;20213;-80
2022/10/13 06:29:07;;;;;;;12.80;9.47;;;;;;;;;;4995892;28;20186;-80
2022/10/13 06:31:33;;;;;;;11.70;9.27;;;;;;;;;;4995905;28;20192;-80
2022/10/13 06:33:59;;;;;;;12.50;9.57;;;;;;;;;;4996162;28;20188;-80
2022/10/13 06:36:25;;;;;;;14.93;9.90;;;;;;;;;;5012425;28;20195;-79
2022/10/13 06:38:51;;;;;;;13.30;10.00;;;;;;;;;;4995858;28;20207;-79
2022/10/13 06:41:17;;;;;;;13.97;10.27;;;;;;;;;;5012112;28;20179;-80
2022/10/13 06:43:43;;;;;;;12.53;10.33;;;;;;;;;;4995953;28;20181;-79
2022/10/13 06:46:10;;;;;;;15.27;9.80;;;;;;;;;;4995119;28;20247;-79
2022/10/13 06:48:36;;;;;;;14.97;10.37;;;;;;;;;;5012099;28;20191;-79
2022/10/13 06:51:03;;;;;;;13.40;10.10;;;;;;;;;;4995637;28;20562;-79
2022/10/13 06:53:29;;;;;;;15.07;9.57;;;;;;;;;;5012030;28;20214;-79
2022/10/13 06:55:59;;;;;;;16.87;10.63;;;;;;;;;;5012458;28;20199;-79
2022/10/13 06:58:25;;;;;;;14.60;9.80;;;;;;;;;;5011315;28;20178;-79
2022/10/13 07:00:52;;;;;;;15.93;10.63;;;;;;;;;;5009799;28;20201;-79
2022/10/13 07:03:18;;;;;;;18.20;11.07;;;;;;;;;;4992691;28;20404;-79
2022/10/13 07:05:44;;;;;;;15.17;11.00;;;;;;;;;;4992812;28;20537;-79
2022/10/13 07:08:10;;;;;;;17.97;11.40;;;;;;;;;;4976535;28;20260;-79
2022/10/13 07:10:39;;;;;;;18.17;12.77;;;;;;;;;;4992447;28;20274;-79
2022/10/13 07:13:05;;;;;;;13.13;9.27;;;;;;;;;;4976310;28;20223;-78
2022/10/13 07:15:31;;;;;;;16.37;10.13;;;;;;;;;;4992456;28;20183;-78
2022/10/13 07:17:57;;;;;;;16.07;11.53;;;;;;;;;;4994310;28;20286;-79
2022/10/13 07:20:25;;;;;;;16.30;11.93;;;;;;;;;;5012730;28;20214;-79
2022/10/13 07:22:54;;;;;;;17.80;11.03;;;;;;;;;;5011376;28;20238;-79
2022/10/13 07:25:20;;;;;;;16.43;10.93;;;;;;;;;;4996773;28;20225;-79
2022/10/13 07:27:46;;;;;;;15.63;11.13;;;;;;;;;;5007184;28;20206;-80
2022/10/13 07:30:12;;;;;;;14.60;10.50;;;;;;;;;;4995103;28;20190;-79
2022/10/13 07:32:40;;;;;;;17.63;11.10;;;;;;;;;;4995656;28;20210;-78
2022/10/13 07:35:07;;;;;;;16.40;11.77;;;;;;;;;;5011909;28;20178;-78
2022/10/13 07:37:33;;;;;;;16.63;11.50;;;;;;;;;;5011949;28;20201;-79
2022/10/13 07:39:59;;;;;;;19.50;11.60;;;;;;;;;;5011902;28;20274;-79
2022/10/13 07:42:25;;;;;;;15.83;12.43;;;;;;;;;;5012176;28;20270;-79
2022/10/13 07:44:51;;;;;;;19.77;13.23;;;;;;;;;;5012405;28;20230;-80
2022/10/13 07:47:17;;;;;;;20.33;12.60;;;;;;;;;;5004518;28;20215;-78
2022/10/13 07:49:43;;;;;;;18.67;12.63;;;;;;;;;;4998933;28;20191;-78
2022/10/13 07:52:09;;;;;;;18.83;13.00;;;;;;;;;;5015429;28;20220;-78
2022/10/13 07:54:35;;;;;;;21.23;13.43;;;;;;;;;;4999425;28;20200;-78
2022/10/13 07:57:02;;;;;;;19.77;12.93;;;;;;;;;;4998691;28;20238;-78
2022/10/13 07:59:28;;;;;;;21.17;13.67;;;;;;;;;;5030273;28;20232;-78
2022/10/13 08:01:54;;;;;;;21.17;13.80;;;;;;;;;;4998171;28;20179;-78
2022/10/13 08:04:20;;;;;;;20.47;13.07;;;;;;;;;;4998901;28;20183;-78
2022/10/13 08:06:46;;;;;;;20.60;13.07;;;;;;;;;;5031290;28;20198;-78
2022/10/13 08:09:12;;;;;;;19.60;12.87;;;;;;;;;;4998279;28;20182;-78
2022/10/13 08:11:38;;;;;;;20.87;13.80;;;;;;;;;;5030888;28;20194;-78
2022/10/13 08:14:04;;;;;;;21.03;14.10;;;;;;;;;;5031120;28;20175;-78
2022/10/13 08:16:31;;;;;;;23.60;13.90;;;;;;;;;;4998556;28;20209;-78
2022/10/13 08:18:57;;;;;;;28.37;17.00;;;;;;;;;;4998484;28;20261;-78
2022/10/13 08:21:24;;;;;;;29.17;18.07;;;;;;;;;;4998021;28;20180;-78
2022/10/13 08:23:50;;;;;;;26.53;14.57;;;;;;;;;;4997979;28;20206;-78
2022/10/13 08:26:18;;;;;;;31.73;18.70;;;;;;;;;;5030459;28;20273;-78
2022/10/13 08:28:43;;;;;;;27.37;14.43;;;;;;;;;;5030556;28;20187;-78
2022/10/13 08:31:09;;;;;;;26.70;15.00;;;;;;;;;;4997814;28;20241;-78
2022/10/13 08:33:35;;;;;;;28.90;16.13;;;;;;;;;;4997245;28;20310;-78
2022/10/13 08:36:01;;;;;;;27.60;15.73;;;;;;;;;;5006338;28;20175;-78
2022/10/13 08:38:27;;;;;;;30.83;15.23;;;;;;;;;;5014499;28;20206;-78
2022/10/13 08:40:54;;;;;;;25.70;14.03;;;;;;;;;;5014334;28;20179;-78
2022/10/13 08:43:22;;;;;;;27.27;14.10;;;;;;;;;;5014206;28;20194;-78
2022/10/13 08:45:52;;;;;;;24.47;13.70;;;;;;;;;;5014059;28;20562;-78
2022/10/13 08:48:20;;;;;;;26.00;15.00;;;;;;;;;;5014119;28;20210;-78
2022/10/13 08:50:48;;;;;;;28.40;14.40;;;;;;;;;;5015216;28;20254;-78
2022/10/13 08:53:20;;;;;;;26.97;14.33;;;;;;;;;;5013618;28;20203;-78
2022/10/13 08:55:58;;;;;;;24.47;14.27;;;;;;;;;;5014069;28;20251;-78
2022/10/13 08:58:26;;;;;;;26.37;13.57;;;;;;;;;;4997791;28;20175;-78
2022/10/13 09:01:18;;;;;;;23.93;14.00;;;;;;;;;;5012551;28;20175;-78
2022/10/13 09:03:56;;;;;;;24.37;14.13;;;;;;;;;;5013930;28;20678;-78
2022/10/13 09:06:30;;;;;;;22.10;13.37;;;;;;;;;;5013882;28;20222;-78
2022/10/13 09:08:57;;;;;;;22.70;13.90;;;;;;;;;;5014848;28;20159;-78
2022/10/13 09:11:25;;;;;;;21.97;13.80;;;;;;;;;;5013569;28;20219;-78
2022/10/13 09:13:53;;;;;;;22.73;13.47;;;;;;;;;;4997463;28;20206;-78
2022/10/13 09:16:26;;;;;;;20.30;12.57;;;;;;;;;;4997493;28;20198;-78
2022/10/13 09:18:51;;;;;;;24.90;13.43;;;;;;;;;;5013438;28;20194;-78
2022/10/13 09:21:19;;;;;;;23.80;13.43;;;;;;;;;;4997047;28;20620;-78
2022/10/13 09:23:45;;;;;;;21.57;13.27;;;;;;;;;;4997414;28;20194;-78
2022/10/13 09:26:16;;;;;;;18.47;12.17;;;;;;;;;;5013377;28;20222;-78
2022/10/13 09:28:42;;;;;;;21.97;13.10;;;;;;;;;;5014613;28;20175;-78
2022/10/13 09:31:16;;;;;;;20.07;12.87;;;;;;;;;;4997486;28;20237;-78
2022/10/13 09:33:42;;;;;;;18.17;11.90;;;;;;;;;;4998140;28;20305;-78
2022/10/13 12:46:24;;;;;;;8.37;5.90;;;;;;;;;;6210240;23;20566;-77
2022/10/13 12:48:50;;;;;;;10.03;5.73;;;;;;;;;;4971885;28;20571;-78
2022/10/13 12:51:25;;;;;;;9.93;6.10;;;;;;;;;;4959598;28;20720;-78
2022/10/13 12:53:51;;;;;;;10.03;5.83;;;;;;;;;;4975716;28;20242;-80
2022/10/13 12:56:37;;;;;;;8.33;6.73;;;;;;;;;;4977732;28;20538;-78
2022/10/13 12:59:03;;;;;;;9.63;6.23;;;;;;;;;;4996121;28;20238;-78
2022/10/13 13:01:31;;;;;;;10.47;5.90;;;;;;;;;;4971197;28;20183;-78
2022/10/13 13:04:02;;;;;;;6.10;5.50;;;;;;;;;;4974737;28;20268;-77
2022/10/13 13:06:32;;;;;;;6.53;4.77;;;;;;;;;;4975147;28;20200;-78
2022/10/13 13:09:09;;;;;;;8.17;6.17;;;;;;;;;;4974871;28;20279;-78
2022/10/13 13:11:36;;;;;;;9.80;5.37;;;;;;;;;;4975353;28;20172;-78
2022/10/13 13:14:21;;;;;;;9.33;5.70;;;;;;;;;;4975348;28;20240;-78
2022/10/13 13:17:06;;;;;;;9.83;6.20;;;;;;;;;;4958844;28;20247;-78
2022/10/13 13:19:33;;;;;;;9.23;5.90;;;;;;;;;;4974793;28;20179;-78
2022/10/13 13:21:59;;;;;;;9.67;5.67;;;;;;;;;;4958700;28;20271;-78
2022/10/13 13:24:25;;;;;;;9.93;6.20;;;;;;;;;;4958389;28;20227;-78
2022/10/13 13:26:52;;;;;;;9.80;5.90;;;;;;;;;;4971062;28;20207;-78
2022/10/13 13:29:17;;;;;;;8.87;5.80;;;;;;;;;;4955664;28;20585;-78
2022/10/13 13:31:43;;;;;;;9.30;6.13;;;;;;;;;;4939389;29;20185;-78
2022/10/13 13:34:09;;;;;;;8.23;5.93;;;;;;;;;;4939383;29;20208;-78
2022/10/13 13:36:35;;;;;;;7.53;6.00;;;;;;;;;;4939681;29;20205;-79
2022/10/13 13:39:01;;;;;;;7.23;5.40;;;;;;;;;;4949129;28;20226;-79
2022/10/13 13:41:29;;;;;;;9.07;5.63;;;;;;;;;;4960927;28;20184;-80
2022/10/13 13:43:55;;;;;;;8.40;6.00;;;;;;;;;;4961087;28;20184;-79
2022/10/13 13:46:23;;;;;;;7.50;5.67;;;;;;;;;;4975173;28;20219;-78
2022/10/13 13:48:49;;;;;;;10.03;6.57;;;;;;;;;;4976372;28;20165;-78
2022/10/13 13:51:16;;;;;;;9.63;7.30;;;;;;;;;;4957719;28;20191;-78
2022/10/13 13:53:42;;;;;;;8.50;6.47;;;;;;;;;;4975453;28;20247;-78
2022/10/13 13:56:11;;;;;;;9.23;6.73;;;;;;;;;;4974078;28;20176;-78
2022/10/13 13:58:37;;;;;;;10.37;6.93;;;;;;;;;;4973751;28;20209;-78
2022/10/13 14:01:03;;;;;;;9.63;6.77;;;;;;;;;;4957923;28;20608;-78
2022/10/13 14:03:31;;;;;;;11.20;7.90;;;;;;;;;;4973224;28;20203;-78
2022/10/13 14:05:57;;;;;;;9.30;6.77;;;;;;;;;;4957747;28;20173;-78
2022/10/13 14:08:23;;;;;;;10.57;6.93;;;;;;;;;;4953992;28;20223;-78
2022/10/13 14:10:49;;;;;;;9.93;6.90;;;;;;;;;;4964172;28;20250;-78
2022/10/13 14:13:15;;;;;;;16.57;10.20;;;;;;;;;;4957146;28;20641;-78
2022/10/13 14:15:41;;;;;;;12.80;8.60;;;;;;;;;;4973276;28;20208;-78
2022/10/13 14:18:07;;;;;;;10.57;7.47;;;;;;;;;;4957428;28;20204;-78
2022/10/13 14:20:33;;;;;;;9.87;8.00;;;;;;;;;;4957280;28;20184;-78
2022/10/13 14:22:59;;;;;;;9.37;7.70;;;;;;;;;;4972855;28;20184;-78
2022/10/13 14:25:25;;;;;;;8.80;7.20;;;;;;;;;;4973129;28;20271;-78
2022/10/13 14:27:51;;;;;;;10.47;7.27;;;;;;;;;;4957443;28;20284;-78
2022/10/13 14:30:31;;;;;;;12.50;7.33;;;;;;;;;;4959802;28;20188;-78
2022/10/13 14:32:57;;;;;;;11.03;7.40;;;;;;;;;;4953763;29;20610;-78
2022/10/13 14:35:23;;;;;;;9.80;7.33;;;;;;;;;;4954043;29;20215;-78
2022/10/13 14:37:49;;;;;;;10.87;7.70;;;;;;;;;;4954582;28;20225;-79
2022/10/13 14:40:15;;;;;;;12.03;7.53;;;;;;;;;;4954928;29;20185;-78
2022/10/13 14:42:41;;;;;;;11.37;7.90;;;;;;;;;;4955192;29;20211;-78
2022/10/13 14:45:07;;;;;;;12.00;8.13;;;;;;;;;;4957872;28;20188;-78
2022/10/13 14:47:33;;;;;;;10.80;8.47;;;;;;;;;;4973705;28;20674;-78
2022/10/13 14:50:02;;;;;;;11.37;7.47;;;;;;;;;;4974372;28;20189;-79
2022/10/13 14:52:28;;;;;;;13.87;8.60;;;;;;;;;;4973461;28;20294;-78
2022/10/13 14:54:54;;;;;;;12.23;8.83;;;;;;;;;;4975785;28;20223;-80
2022/10/13 14:57:20;;;;;;;12.40;8.50;;;;;;;;;;4974412;28;20212;-78
2022/10/13 14:59:46;;;;;;;11.80;9.13;;;;;;;;;;4973913;28;20211;-78
2022/10/13 15:02:13;;;;;;;11.57;8.30;;;;;;;;;;4973755;28;20335;-78
2022/10/13 15:04:39;;;;;;;13.37;9.13;;;;;;;;;;4974200;28;20180;-78
2022/10/13 15:07:05;;;;;;;12.00;9.17;;;;;;;;;;4974590;28;20732;-78
2022/10/13 15:09:31;;;;;;;13.80;9.50;;;;;;;;;;4974219;28;20184;-78
2022/10/13 15:11:57;;;;;;;11.70;9.03;;;;;;;;;;4973726;28;20181;-78
2022/10/13 15:14:23;;;;;;;15.23;9.20;;;;;;;;;;4973856;28;20647;-78
2022/10/13 15:16:49;;;;;;;14.17;9.63;;;;;;;;;;4973891;28;20203;-78
2022/10/13 15:19:15;;;;;;;13.33;9.10;;;;;;;;;;4973873;28;20180;-78
2022/10/13 15:21:41;;;;;;;14.80;9.33;;;;;;;;;;4974106;28;20208;-78
2022/10/13 15:24:07;;;;;;;15.23;9.37;;;;;;;;;;4974267;28;20536;-78
2022/10/13 15:26:35;;;;;;;12.57;9.13;;;;;;;;;;4974110;28;20606;-78
2022/10/13 15:32:09;;;;;;;12.83;8.90;;;;;;;;;;4974920;28;20211;-78
2022/10/13 15:34:35;;;;;;;12.50;8.93;;;;;;;;;;4974073;28;20177;-78
2022/10/13 15:37:07;;;;;;;12.40;8.50;;;;;;;;;;4974473;28;20211;-78
2022/10/13 15:39:33;;;;;;;12.83;8.80;;;;;;;;;;4974759;28;20184;-78
2022/10/13 15:41:59;;;;;;;12.13;8.70;;;;;;;;;;4973410;28;20211;-78
2022/10/13 15:44:25;;;;;;;12.40;8.60;;;;;;;;;;4973735;28;20185;-78
2022/10/13 15:46:55;;;;;;;11.33;8.77;;;;;;;;;;4973282;28;20683;-78
2022/10/13 15:49:22;;;;;;;10.90;8.10;;;;;;;;;;4973700;28;20212;-78
2022/10/13 15:51:48;;;;;;;14.40;8.73;;;;;;;;;;4973762;28;20188;-78
2022/10/13 15:54:14;;;;;;;12.30;8.70;;;;;;;;;;4973904;28;20549;-78
2022/10/13 15:56:40;;;;;;;13.40;8.47;;;;;;;;;;4973701;28;20196;-78
2022/10/13 15:59:06;;;;;;;12.27;8.70;;;;;;;;;;4973502;28;20181;-78
2022/10/13 16:01:33;;;;;;;14.23;9.00;;;;;;;;;;4973480;28;20173;-80
2022/10/13 16:03:59;;;;;;;11.67;8.50;;;;;;;;;;4973802;28;20181;-81
2022/10/13 16:06:25;;;;;;;12.07;8.23;;;;;;;;;;4973109;28;20663;-81
2022/10/13 16:08:52;;;;;;;11.90;8.27;;;;;;;;;;4973281;28;20185;-81
2022/10/13 16:11:19;;;;;;;12.47;8.70;;;;;;;;;;4976075;28;20544;-81
2022/10/13 16:13:48;;;;;;;12.47;8.80;;;;;;;;;;4976845;28;20223;-79
2022/10/13 16:16:15;;;;;;;15.00;9.10;;;;;;;;;;4977049;28;20538;-79
2022/10/13 16:18:41;;;;;;;12.40;9.50;;;;;;;;;;4977143;28;20176;-78
2022/10/13 16:21:14;;;;;;;13.57;9.67;;;;;;;;;;4976696;28;20544;-78
2022/10/13 16:23:40;;;;;;;13.43;9.03;;;;;;;;;;4977260;28;20176;-78
2022/10/13 16:26:06;;;;;;;13.63;9.73;;;;;;;;;;4977314;28;20570;-78
2022/10/13 16:28:35;;;;;;;14.90;10.00;;;;;;;;;;4976691;28;20184;-78
2022/10/13 16:31:02;;;;;;;12.23;8.87;;;;;;;;;;4976846;28;20673;-78
2022/10/13 16:33:28;;;;;;;15.50;9.47;;;;;;;;;;4976881;28;20200;-78
2022/10/13 16:36:08;;;;;;;13.40;9.20;;;;;;;;;;4963721;28;20200;-78
2022/10/13 16:38:34;;;;;;;13.33;9.13;;;;;;;;;;5002022;28;20172;-79
2022/10/13 16:41:07;;;;;;;11.60;8.70;;;;;;;;;;4976267;28;20267;-79
2022/10/13 16:43:33;;;;;;;16.00;12.50;;;;;;;;;;4976106;28;20176;-79
2022/10/13 16:46:01;;;;;;;14.50;9.87;;;;;;;;;;4976801;28;20636;-79
2022/10/13 16:48:28;;;;;;;12.33;9.20;;;;;;;;;;4972531;28;20213;-79
2022/10/13 16:50:54;;;;;;;12.63;9.50;;;;;;;;;;4957036;28;20197;-79
2022/10/13 16:53:20;;;;;;;12.23;9.00;;;;;;;;;;4975740;28;20200;-79
2022/10/13 16:55:47;;;;;;;11.80;9.10;;;;;;;;;;4976307;28;20188;-79
2022/10/13 16:58:13;;;;;;;13.83;8.77;;;;;;;;;;4976229;28;20207;-80
2022/10/13 17:00:39;;;;;;;11.37;9.00;;;;;;;;;;4976878;28;20180;-78
2022/10/13 17:03:05;;;;;;;14.53;9.30;;;;;;;;;;4975925;28;20191;-80
2022/10/13 17:05:32;;;;;;;13.23;9.03;;;;;;;;;;4976917;28;20279;-80
2022/10/13 17:07:58;;;;;;;16.47;10.30;;;;;;;;;;4976491;28;20204;-80
2022/10/13 17:10:24;;;;;;;15.63;9.80;;;;;;;;;;4977123;28;20177;-80
2022/10/13 17:12:50;;;;;;;14.80;9.93;;;;;;;;;;4960110;28;20204;-80
2022/10/13 17:15:18;;;;;;;12.37;8.70;;;;;;;;;;4960411;28;20187;-80
2022/10/13 17:17:43;;;;;;;14.07;9.30;;;;;;;;;;4960544;28;20192;-80
2022/10/13 17:20:11;;;;;;;12.17;9.40;;;;;;;;;;4960000;28;20191;-80
2022/10/13 17:22:38;;;;;;;15.23;10.53;;;;;;;;;;4959569;28;20188;-80
2022/10/13 17:25:04;;;;;;;14.03;9.77;;;;;;;;;;4960286;28;20181;-79
2022/10/13 17:27:30;;;;;;;15.30;10.83;;;;;;;;;;4975785;28;20236;-79
2022/10/13 17:29:56;;;;;;;16.20;10.57;;;;;;;;;;4941198;28;20181;-80
2022/10/13 17:32:22;;;;;;;15.23;11.13;;;;;;;;;;4956373;29;20201;-79
2022/10/13 17:34:48;;;;;;;16.73;11.17;;;;;;;;;;4940324;29;20184;-79
2022/10/13 17:37:14;;;;;;;15.00;9.87;;;;;;;;;;4940122;29;20278;-78
2022/10/13 17:39:41;;;;;;;14.90;10.50;;;;;;;;;;4941713;29;20257;-79
2022/10/13 17:42:07;;;;;;;14.33;10.10;;;;;;;;;;4940950;29;20237;-78